createdAt,value
2022-08-17T00:02:09.848Z,19.07
2022-08-17T00:04:50.648Z,13.47
2022-08-17T00:07:17.391Z,11.20
2022-08-17T00:09:44.026Z,19.87
2022-08-17T00:12:40.666Z,16.00
2022-08-17T00:14:57.293Z,13.33
2022-08-17T00:17:24.059Z,17.63
2022-08-17T00:19:50.645Z,16.70
2022-08-17T00:22:34.647Z,26.37
2022-08-17T00:25:07.256Z,22.10
2022-08-17T00:27:34.487Z,15.73
2022-08-17T00:30:01.348Z,12.80
2022-08-17T00:33:12.190Z,17.70
2022-08-17T00:35:18.247Z,13.77
2022-08-17T00:37:44.919Z,19.07
2022-08-17T00:40:14.453Z,11.40
2022-08-17T00:42:42.680Z,13.10
2022-08-17T00:45:13.334Z,12.40
2022-08-17T00:47:40.591Z,10.63
2022-08-17T00:50:10.603Z,18.73
2022-08-17T00:52:47.589Z,20.40
2022-08-17T00:55:14.697Z,11.37
2022-08-17T00:57:51.265Z,18.43
2022-08-17T01:00:28.046Z,16.13
2022-08-17T01:03:00.122Z,13.17
2022-08-17T01:05:29.441Z,12.70
2022-08-17T01:07:56.847Z,16.17
2022-08-17T01:10:59.305Z,18.37
2022-08-17T01:13:18.010Z,14.80
2022-08-17T01:15:59.465Z,12.37
2022-08-17T01:18:27.238Z,13.87
2022-08-17T01:20:58.569Z,13.50
2022-08-17T01:23:27.465Z,20.97
2022-08-17T01:25:57.837Z,17.47
2022-08-17T01:28:52.449Z,17.70
2022-08-17T01:31:14.769Z,17.27
2022-08-17T01:33:41.777Z,15.17
2022-08-17T01:36:08.789Z,13.67
2022-08-17T01:38:36.990Z,17.33
2022-08-17T01:41:07.853Z,17.67
2022-08-17T01:43:53.718Z,15.73
2022-08-17T01:46:28.162Z,13.87
2022-08-17T01:48:57.219Z,18.63
2022-08-17T01:51:27.582Z,22.20
2022-08-17T01:53:58.222Z,11.63
2022-08-17T01:56:26.857Z,11.97
2022-08-17T01:58:54.094Z,11.57
2022-08-17T02:01:23.873Z,15.00
2022-08-17T02:03:53.231Z,16.53
2022-08-17T02:06:27.503Z,13.50
2022-08-17T02:09:02.723Z,13.80
2022-08-17T02:11:32.419Z,15.57
2022-08-17T02:14:03.433Z,14.67
2022-08-17T02:16:36.850Z,15.40
2022-08-17T02:19:08.372Z,12.20
2022-08-17T02:21:36.754Z,15.43
2022-08-17T02:24:04.911Z,11.60
2022-08-17T02:26:31.578Z,16.03
2022-08-17T02:28:58.194Z,20.43
2022-08-17T02:31:24.843Z,12.40
2022-08-17T02:34:00.389Z,18.47
2022-08-17T02:36:31.015Z,12.90
2022-08-17T02:38:58.461Z,10.50
2022-08-17T02:41:25.065Z,12.97
2022-08-17T02:43:53.085Z,16.23
2022-08-17T02:46:19.735Z,19.23
2022-08-17T02:48:46.408Z,17.67
2022-08-17T02:51:13.097Z,17.70
2022-08-17T02:53:39.706Z,17.47
2022-08-17T02:56:06.696Z,14.03
2022-08-17T02:58:35.292Z,21.57
2022-08-17T03:01:05.026Z,17.73
2022-08-17T03:03:31.941Z,17.97
2022-08-17T03:05:58.553Z,23.57
2022-08-17T03:08:25.441Z,20.03
2022-08-17T03:10:52.548Z,22.50
2022-08-17T03:13:19.997Z,23.07
2022-08-17T03:15:48.351Z,24.37
2022-08-17T03:18:25.066Z,21.87
2022-08-17T03:20:59.623Z,22.00
2022-08-17T03:23:29.709Z,20.30
2022-08-17T03:25:57.781Z,22.33
2022-08-17T03:28:24.917Z,15.77
2022-08-17T03:30:52.100Z,15.77
2022-08-17T03:33:19.486Z,14.10
2022-08-17T03:35:46.804Z,16.13
2022-08-17T03:38:15.853Z,17.40
2022-08-17T03:40:56.569Z,19.17
2022-08-17T03:43:27.671Z,15.90
2022-08-17T03:46:26.907Z,15.97
2022-08-17T03:49:17.870Z,23.70
2022-08-17T03:52:03.434Z,18.73
2022-08-17T03:54:48.530Z,19.10
2022-08-17T03:57:15.223Z,19.77
2022-08-17T03:59:42.062Z,16.57
2022-08-17T04:02:21.054Z,24.03
2022-08-17T04:04:50.798Z,13.93
2022-08-17T04:07:23.330Z,14.87
2022-08-17T04:09:50.138Z,15.00
2022-08-17T04:12:19.230Z,19.93
2022-08-17T04:14:53.381Z,14.23
2022-08-17T04:17:24.038Z,22.03
2022-08-17T04:19:50.737Z,17.33
2022-08-17T04:22:30.823Z,17.23
2022-08-17T04:25:16.932Z,19.67
2022-08-17T04:27:43.742Z,13.43
2022-08-17T04:30:11.187Z,14.47
2022-08-17T04:33:13.932Z,13.80
2022-08-17T04:35:43.161Z,23.57
2022-08-17T04:38:14.019Z,17.30
2022-08-17T04:40:59.184Z,10.63
2022-08-17T04:43:28.157Z,9.00
2022-08-17T04:46:00.971Z,13.90
2022-08-17T04:48:36.928Z,10.00
2022-08-17T04:51:09.515Z,8.33
2022-08-17T04:53:36.253Z,13.33
2022-08-17T04:56:03.608Z,8.63
2022-08-17T04:58:30.215Z,11.80
2022-08-17T05:00:57.046Z,15.90
2022-08-17T05:03:24.357Z,11.33
2022-08-17T05:05:51.110Z,15.33
2022-08-17T05:08:19.918Z,13.67
2022-08-17T05:10:47.926Z,10.37
2022-08-17T05:13:23.891Z,11.17
2022-08-17T05:15:57.969Z,10.77
2022-08-17T05:18:25.456Z,11.53
2022-08-17T05:20:52.810Z,10.57
2022-08-17T05:23:22.080Z,12.27
2022-08-17T05:25:51.281Z,11.83
2022-08-17T05:28:23.528Z,11.23
2022-08-17T05:30:55.467Z,9.17
2022-08-17T05:33:25.294Z,13.93
2022-08-17T05:35:54.725Z,9.17
2022-08-17T05:38:23.618Z,9.73
2022-08-17T05:40:50.756Z,10.80
2022-08-17T05:43:22.283Z,12.80
2022-08-17T05:46:16.582Z,9.30
2022-08-17T05:48:49.357Z,10.07
2022-08-17T05:51:31.018Z,11.30
2022-08-17T05:54:17.526Z,10.73
2022-08-17T05:56:56.069Z,11.63
2022-08-17T05:59:48.125Z,23.10
2022-08-17T06:02:24.328Z,9.43
2022-08-17T06:04:56.643Z,11.47
2022-08-17T06:07:37.132Z,20.73
2022-08-17T06:10:18.278Z,9.70
2022-08-17T06:13:02.963Z,12.00
2022-08-17T06:15:56.235Z,14.20
2022-08-17T06:18:28.427Z,9.30
2022-08-17T06:21:01.163Z,11.93
2022-08-17T06:23:34.723Z,16.00
2022-08-17T06:26:12.622Z,16.63
2022-08-17T06:28:49.331Z,10.50
2022-08-17T06:31:22.458Z,11.53
2022-08-17T06:33:49.613Z,9.30
2022-08-17T06:36:37.539Z,9.00
2022-08-17T06:39:10.324Z,9.50
2022-08-17T06:42:07.114Z,11.43
2022-08-17T06:44:51.031Z,10.23
2022-08-17T06:47:47.421Z,11.87
2022-08-17T06:50:19.358Z,11.57
2022-08-17T06:53:04.265Z,13.40
2022-08-17T06:55:53.206Z,11.07
2022-08-17T06:58:23.410Z,11.30
2022-08-17T07:00:59.544Z,12.93
2022-08-17T07:03:53.440Z,10.60
2022-08-17T07:06:27.703Z,9.67
2022-08-17T07:09:08.594Z,15.33
2022-08-17T07:11:51.752Z,13.03
2022-08-17T07:14:43.101Z,11.30
2022-08-17T07:17:15.666Z,12.03
2022-08-17T07:19:45.387Z,15.67
2022-08-17T07:22:50.586Z,11.47
2022-08-17T07:25:27.479Z,13.47
2022-08-17T07:27:56.259Z,12.70
2022-08-17T07:30:54.533Z,19.20
2022-08-17T07:33:25.625Z,19.83
2022-08-17T07:35:52.793Z,17.70
2022-08-17T07:38:25.028Z,10.03
2022-08-17T07:41:02.413Z,20.63
2022-08-17T07:43:33.754Z,19.25
2022-08-17T07:46:42.101Z,11.73
2022-08-17T07:49:14.582Z,10.50
2022-08-17T07:51:57.164Z,9.70
2022-08-17T07:54:39.533Z,11.17
2022-08-17T07:57:12.662Z,11.52
2022-08-17T07:59:43.283Z,9.75
2022-08-17T08:02:31.695Z,11.02
2022-08-17T08:05:02.565Z,11.07
2022-08-17T08:07:39.592Z,15.15
2022-08-17T08:10:27.914Z,12.80
2022-08-17T08:13:21.821Z,12.48
2022-08-17T08:15:53.662Z,11.88
2022-08-17T08:18:54.269Z,13.68
2022-08-17T08:21:33.020Z,11.10
2022-08-17T08:24:37.153Z,11.57
2022-08-17T08:27:35.812Z,11.95
2022-08-17T08:30:10.277Z,12.32
2022-08-17T08:32:50.402Z,12.85
2022-08-17T08:35:31.891Z,11.00
2022-08-17T08:38:28.326Z,13.25
2022-08-17T08:41:07.407Z,14.60
2022-08-17T08:43:41.130Z,11.27
2022-08-17T08:46:35.378Z,12.20
2022-08-17T08:50:02.794Z,10.87
2022-08-17T08:53:00.221Z,11.60
2022-08-17T08:55:41.499Z,19.50
2022-08-17T08:58:31.616Z,14.87
2022-08-17T09:01:08.824Z,14.63
2022-08-17T09:04:21.454Z,13.90
2022-08-17T09:07:06.948Z,14.40
2022-08-17T09:10:13.925Z,17.80
2022-08-17T09:12:58.732Z,13.53
2022-08-17T09:15:32.027Z,15.30
2022-08-17T09:19:01.848Z,15.77
2022-08-17T09:20:57.309Z,14.20
2022-08-17T09:23:36.265Z,15.03
2022-08-17T09:26:31.551Z,13.83
2022-08-17T09:29:05.464Z,21.27
2022-08-17T09:31:47.023Z,17.10
2022-08-17T09:34:29.615Z,14.37
2022-08-17T09:37:29.927Z,14.20
2022-08-17T09:40:21.388Z,21.33
2022-08-17T09:42:53.362Z,16.87
2022-08-17T09:45:40.849Z,14.47
2022-08-17T09:48:48.202Z,15.87
2022-08-17T09:51:36.725Z,16.00
2022-08-17T09:54:37.069Z,17.80
2022-08-17T09:57:31.376Z,16.83
2022-08-17T10:00:15.580Z,19.43
2022-08-17T10:02:54.362Z,16.40
2022-08-17T10:05:46.853Z,15.87
2022-08-17T10:08:35.653Z,21.47
2022-08-17T10:11:18.881Z,19.97
2022-08-17T10:14:12.530Z,18.33
2022-08-17T10:16:59.151Z,16.50
2022-08-17T10:19:40.129Z,17.97
2022-08-17T10:22:51.174Z,17.67
2022-08-17T10:25:54.080Z,14.23
2022-08-17T10:28:28.812Z,16.43
2022-08-17T10:31:23.451Z,17.50
2022-08-17T10:33:56.744Z,17.03
2022-08-17T10:36:27.127Z,18.70
2022-08-17T10:39:52.671Z,18.13
2022-08-17T10:42:36.546Z,26.30
2022-08-17T10:45:17.988Z,20.57
2022-08-17T10:48:05.729Z,20.13
2022-08-17T10:50:55.993Z,20.30
2022-08-17T10:53:31.708Z,21.73
2022-08-17T10:56:13.666Z,21.83
2022-08-17T10:58:55.026Z,22.60
2022-08-17T11:01:33.962Z,25.90
2022-08-17T11:04:11.610Z,20.10
2022-08-17T11:06:49.532Z,19.30
2022-08-17T11:10:00.281Z,19.10
2022-08-17T11:12:38.081Z,17.07
2022-08-17T11:15:17.651Z,16.37
2022-08-17T11:18:15.822Z,16.83
2022-08-17T11:21:16.418Z,14.53
2022-08-17T11:24:18.263Z,14.40
2022-08-17T11:27:22.070Z,15.23
2022-08-17T11:29:59.484Z,15.73
2022-08-17T11:32:37.338Z,23.03
2022-08-17T11:35:18.936Z,13.83
2022-08-17T11:38:25.693Z,14.30
2022-08-17T11:41:16.940Z,15.00
2022-08-17T11:44:21.237Z,12.77
2022-08-17T11:47:17.092Z,16.47
2022-08-17T11:50:07.995Z,15.60
2022-08-17T11:52:39.542Z,19.40
2022-08-17T11:55:33.945Z,14.27
2022-08-17T11:58:04.430Z,16.60
2022-08-17T12:00:46.021Z,15.53
2022-08-17T12:03:23.456Z,16.73
2022-08-17T12:05:53.365Z,16.70
2022-08-17T12:08:22.618Z,15.33
2022-08-17T12:10:52.707Z,15.43
2022-08-17T12:13:19.778Z,18.30
2022-08-17T12:15:50.091Z,16.77
2022-08-17T12:18:30.793Z,18.00
2022-08-17T12:21:17.682Z,20.30
2022-08-17T12:23:57.425Z,18.83
2022-08-17T12:26:31.844Z,24.80
2022-08-17T12:29:05.927Z,20.13
2022-08-17T12:31:45.038Z,20.40
2022-08-17T12:34:26.795Z,18.93
2022-08-17T12:37:04.579Z,21.87
2022-08-17T12:39:33.987Z,24.63
2022-08-17T12:42:02.864Z,30.90
2022-08-17T12:44:36.310Z,24.07
2022-08-17T12:47:21.989Z,24.33
2022-08-17T12:49:52.596Z,25.43
2022-08-17T12:52:28.241Z,24.90
2022-08-17T12:54:54.820Z,26.77
2022-08-17T12:57:29.183Z,31.67
2022-08-17T13:00:07.615Z,28.70
2022-08-17T13:02:45.212Z,32.03
2022-08-17T13:05:24.165Z,31.00
2022-08-17T13:07:53.081Z,33.47
2022-08-17T13:10:30.047Z,30.90
2022-08-17T13:13:04.886Z,31.83
2022-08-17T13:15:44.881Z,28.73
2022-08-17T13:18:33.658Z,24.87
2022-08-17T13:21:00.982Z,26.07
2022-08-17T13:23:29.379Z,26.03
2022-08-17T13:26:02.373Z,26.47
2022-08-17T13:28:30.738Z,25.20
2022-08-17T13:31:28.055Z,26.17
2022-08-17T13:34:19.345Z,26.30
2022-08-17T13:36:47.942Z,27.30
2022-08-17T13:39:21.459Z,26.57
2022-08-17T13:41:50.226Z,26.20
2022-08-17T13:44:37.601Z,26.35
2022-08-17T13:47:15.615Z,24.98
2022-08-17T13:49:48.772Z,23.08
2022-08-17T13:52:40.610Z,22.08
2022-08-17T13:55:19.827Z,23.27
2022-08-17T13:58:05.040Z,20.50
2022-08-17T14:00:36.189Z,15.65
2022-08-17T14:03:04.806Z,17.75
2022-08-17T14:05:32.382Z,19.25
2022-08-17T14:08:02.098Z,15.48
2022-08-17T14:10:35.715Z,16.42
2022-08-17T14:13:02.651Z,18.40
2022-08-17T14:15:55.349Z,14.80
2022-08-17T14:18:17.998Z,16.08
2022-08-17T14:21:02.495Z,17.58
2022-08-17T14:23:31.804Z,16.92
2022-08-17T14:25:58.680Z,16.08
2022-08-17T14:28:25.433Z,17.52
2022-08-17T14:30:55.372Z,17.00
2022-08-17T14:33:24.556Z,16.98
2022-08-17T14:35:54.767Z,13.88
2022-08-17T14:38:21.392Z,12.55
2022-08-17T14:40:48.563Z,14.30
2022-08-17T14:43:15.755Z,15.30
2022-08-17T14:45:43.321Z,15.25
2022-08-17T14:48:10.071Z,9.85
2022-08-17T14:50:40.540Z,11.95
2022-08-17T14:53:09.974Z,12.85
2022-08-17T14:55:39.650Z,12.50
2022-08-17T14:58:07.513Z,13.13
2022-08-17T15:00:34.348Z,11.45
2022-08-17T15:03:01.849Z,12.63
2022-08-17T15:05:33.480Z,9.80
2022-08-17T15:08:01.080Z,8.98
2022-08-17T15:10:29.250Z,8.45
2022-08-17T15:12:57.170Z,8.63
2022-08-17T15:15:24.016Z,10.27
2022-08-17T15:17:51.450Z,12.63
2022-08-17T15:20:21.067Z,10.73
2022-08-17T15:22:49.638Z,9.18
2022-08-17T15:25:19.032Z,10.52
2022-08-17T15:27:45.992Z,10.05
2022-08-17T15:30:13.249Z,10.52
2022-08-17T15:32:51.216Z,10.98
2022-08-17T15:35:27.338Z,9.32
2022-08-17T15:38:10.578Z,8.40
2022-08-17T15:40:43.247Z,8.32
2022-08-17T15:43:13.150Z,8.40
2022-08-17T15:45:40.700Z,11.02
2022-08-17T15:48:07.957Z,7.80
2022-08-17T15:50:35.864Z,7.90
2022-08-17T15:53:03.569Z,9.15
2022-08-17T15:55:31.264Z,8.38
2022-08-17T15:57:58.387Z,7.45
2022-08-17T16:00:28.271Z,8.30
2022-08-17T16:03:15.106Z,8.30
2022-08-17T16:05:42.969Z,6.82
2022-08-17T16:08:11.226Z,6.22
2022-08-17T16:10:38.031Z,8.98
2022-08-17T16:13:04.847Z,6.70
2022-08-17T16:15:31.959Z,7.88
2022-08-17T16:17:59.113Z,6.47
2022-08-17T16:20:26.510Z,6.40
2022-08-17T16:22:54.652Z,6.55
2022-08-17T16:25:40.307Z,6.95
2022-08-17T16:28:16.942Z,7.10
2022-08-17T16:30:44.398Z,5.53
2022-08-17T16:33:12.168Z,6.85
2022-08-17T16:35:39.628Z,6.00
2022-08-17T16:38:07.318Z,6.45
2022-08-17T16:40:36.034Z,6.63
2022-08-17T16:43:03.891Z,7.63
2022-08-17T16:45:40.321Z,6.15
2022-08-17T16:48:08.138Z,8.10
2022-08-17T16:50:35.509Z,7.00
2022-08-17T16:53:11.585Z,6.10
2022-08-17T16:55:38.440Z,6.63
2022-08-17T16:58:06.336Z,6.03
2022-08-17T17:00:33.750Z,7.25
2022-08-17T17:03:18.129Z,5.43
2022-08-17T17:06:13.730Z,9.23
2022-08-17T17:08:48.329Z,6.25
2022-08-17T17:11:43.982Z,7.15
2022-08-17T17:14:16.778Z,7.97
2022-08-17T17:16:57.616Z,9.70
2022-08-17T17:19:45.386Z,6.82
2022-08-17T17:22:23.359Z,7.88
2022-08-17T17:25:27.877Z,6.85
2022-08-17T17:28:11.123Z,6.88
2022-08-17T17:30:57.618Z,7.57
2022-08-17T17:33:46.270Z,6.72
2022-08-17T17:36:41.952Z,7.18
2022-08-17T17:39:27.962Z,6.50
2022-08-17T17:41:57.739Z,7.63
2022-08-17T17:44:32.983Z,7.18
2022-08-17T17:47:01.970Z,7.22
2022-08-17T17:49:36.982Z,7.30
2022-08-17T17:52:30.542Z,7.88
2022-08-17T17:55:18.961Z,6.95
2022-08-17T17:58:00.592Z,6.70
2022-08-17T18:00:53.124Z,7.13
2022-08-17T18:03:50.689Z,7.20
2022-08-17T18:06:46.366Z,9.63
2022-08-17T18:09:29.099Z,10.93
2022-08-17T18:12:11.350Z,7.80
2022-08-17T18:14:55.136Z,10.73
2022-08-17T18:17:22.155Z,8.88
2022-08-17T18:19:48.905Z,10.10
2022-08-17T18:22:19.322Z,8.73
2022-08-17T18:24:49.472Z,9.23
2022-08-17T18:27:33.014Z,11.75
2022-08-17T18:30:19.959Z,11.73
2022-08-17T18:32:46.945Z,10.65
2022-08-17T18:35:14.372Z,12.82
2022-08-17T18:38:03.945Z,15.00
2022-08-17T18:40:34.621Z,15.77
2022-08-17T18:43:12.605Z,19.87
2022-08-17T18:45:49.489Z,15.83
2022-08-17T18:48:30.727Z,18.67
2022-08-17T18:51:21.164Z,16.20
2022-08-17T18:54:12.976Z,16.10
2022-08-17T18:56:59.492Z,17.37
2022-08-17T18:59:44.314Z,16.77
2022-08-17T19:02:23.143Z,18.60
2022-08-17T19:05:13.176Z,17.37
2022-08-17T19:07:43.816Z,21.87
2022-08-17T19:10:23.000Z,21.20
2022-08-17T19:13:12.666Z,18.60
2022-08-17T19:16:14.586Z,19.97
2022-08-17T19:18:39.269Z,23.33
2022-08-17T19:21:21.465Z,21.80
2022-08-17T19:24:11.363Z,21.77
2022-08-17T19:26:53.955Z,22.53
2022-08-17T19:29:51.502Z,22.23
2022-08-17T19:32:24.246Z,23.17
2022-08-17T19:34:51.138Z,26.27
2022-08-17T19:37:17.707Z,25.00
2022-08-17T19:40:04.779Z,26.23
2022-08-17T19:42:31.400Z,32.53
2022-08-17T19:45:24.275Z,29.60
2022-08-17T19:48:03.806Z,29.33
2022-08-17T19:50:43.590Z,36.77
2022-08-17T19:53:36.682Z,34.27
2022-08-17T19:56:11.619Z,34.00
2022-08-17T19:58:48.223Z,33.30
2022-08-17T20:01:40.645Z,35.70
2022-08-17T20:04:16.213Z,31.13
2022-08-17T20:06:49.222Z,36.50
2022-08-17T20:09:36.830Z,35.13
2022-08-17T20:12:11.409Z,39.90
2022-08-17T20:14:53.409Z,39.07
2022-08-17T20:17:28.357Z,45.33
2022-08-17T20:20:19.675Z,38.83
2022-08-17T20:23:20.594Z,39.37
2022-08-17T20:25:59.049Z,42.07
2022-08-17T20:28:30.297Z,43.80
2022-08-17T20:30:58.419Z,46.37
2022-08-17T20:33:36.876Z,49.70
2022-08-17T20:36:21.664Z,52.47
2022-08-17T20:38:57.179Z,58.97
2022-08-17T20:41:29.071Z,57.50
2022-08-17T20:43:58.838Z,63.53
2022-08-17T20:46:40.463Z,63.87
2022-08-17T20:49:44.522Z,64.73
2022-08-17T20:52:32.694Z,59.83
2022-08-17T20:54:59.366Z,55.70
2022-08-17T20:57:31.977Z,59.50
2022-08-17T21:00:16.413Z,62.60
2022-08-17T21:02:49.466Z,66.90
2022-08-17T21:05:34.278Z,73.67
2022-08-17T21:08:14.569Z,74.00
2022-08-17T21:10:45.422Z,78.73
2022-08-17T21:13:13.431Z,74.17
2022-08-17T21:15:51.677Z,74.17
2022-08-17T21:18:40.041Z,70.93
2022-08-17T21:21:32.762Z,67.80
2022-08-17T21:24:14.177Z,68.20
2022-08-17T21:27:19.236Z,68.57
2022-08-17T21:30:08.533Z,67.00
2022-08-17T21:32:38.969Z,73.50
2022-08-17T21:35:12.453Z,77.00
2022-08-17T21:37:41.888Z,73.57
2022-08-17T21:40:18.023Z,77.97
2022-08-17T21:43:25.102Z,87.10
2022-08-17T21:46:04.301Z,85.30
2022-08-17T21:48:41.437Z,90.57
2022-08-17T21:51:13.821Z,101.40
2022-08-17T21:53:47.537Z,108.50
2022-08-17T21:56:41.590Z,119.83
2022-08-17T21:59:24.373Z,115.23
2022-08-17T22:02:02.551Z,118.33
2022-08-17T22:04:32.486Z,115.23
2022-08-17T22:07:01.721Z,132.33
2022-08-17T22:09:31.992Z,129.07
2022-08-17T22:11:58.688Z,137.07
2022-08-17T22:14:55.154Z,137.90
2022-08-17T22:17:31.198Z,142.33
2022-08-17T22:20:04.402Z,146.27
2022-08-17T22:23:07.058Z,154.43
2022-08-17T22:25:37.264Z,163.80
2022-08-17T22:28:07.481Z,163.83
2022-08-17T22:30:38.114Z,174.33
2022-08-17T22:33:34.833Z,181.70
2022-08-17T22:36:22.536Z,185.17
2022-08-17T22:38:50.681Z,173.40
2022-08-17T22:41:19.986Z,189.30
2022-08-17T22:43:48.155Z,192.00
2022-08-17T22:46:15.659Z,184.77
2022-08-17T22:48:51.031Z,191.77
2022-08-17T22:51:25.550Z,199.53
2022-08-17T22:54:14.306Z,189.73
2022-08-17T22:57:18.846Z,190.53
2022-08-17T22:59:51.486Z,206.10
2022-08-17T23:02:26.051Z,202.97
2022-08-17T23:04:57.576Z,214.37
2022-08-17T23:07:24.274Z,208.03
2022-08-17T23:09:52.217Z,199.40
2022-08-17T23:12:26.212Z,221.23
2022-08-17T23:14:58.452Z,215.70
2022-08-17T23:17:25.068Z,237.23
2022-08-17T23:19:51.711Z,223.30
2022-08-17T23:22:18.426Z,232.60
2022-08-17T23:24:48.783Z,240.67
2022-08-17T23:27:15.586Z,250.40
2022-08-17T23:29:42.336Z,243.00
2022-08-17T23:32:15.066Z,234.93
2022-08-17T23:34:44.550Z,239.43
2022-08-17T23:37:12.047Z,231.87
2022-08-17T23:39:39.740Z,253.53
2022-08-17T23:42:09.388Z,273.20
2022-08-17T23:44:37.897Z,267.33
2022-08-17T23:47:05.588Z,245.57
2022-08-17T23:49:32.374Z,236.63
2022-08-17T23:52:01.950Z,254.03
2022-08-17T23:54:33.531Z,240.13
2022-08-17T23:57:04.878Z,243.63
2022-08-17T23:59:33.859Z,224.60
